Time;durP1;ratioP1;P1;durP2;ratioP2;P2;SDS_P1;SDS_P2;PMS_P1;PMS_P2;Temp;Humidity;BMP_temperature;BMP_pressure;BME280_temperature;BME280_humidity;BME280_pressure;Samples;Min_cycle;Max_cycle;Signal;HPM_P1;HPM_P2
2022/06/20 00:00:25;;;;;;;6.03;1.75;;;16.60;99.90;;;;;;5030935;28;20180;-82
2022/06/20 00:02:55;;;;;;;6.32;2.10;;;16.70;99.90;;;;;;5015969;28;20247;-81
2022/06/20 00:05:38;;;;;;;18.30;1.73;;;16.80;99.90;;;;;;5015283;28;20177;-82
2022/06/20 00:08:05;;;;;;;7.82;1.67;;;16.90;99.90;;;;;;5015170;28;20208;-82
2022/06/20 00:10:32;;;;;;;9.52;1.60;;;16.70;99.90;;;;;;5015165;28;20184;-80
2022/06/20 00:12:59;;;;;;;16.20;1.58;;;16.60;99.90;;;;;;5014033;28;20572;-82
2022/06/20 00:15:37;;;;;;;10.20;2.13;;;16.60;99.90;;;;;;5013880;28;20211;-83
2022/06/20 00:18:05;;;;;;;10.30;1.90;;;16.80;99.90;;;;;;5014550;28;20668;-81
2022/06/20 00:20:30;;;;;;;16.58;2.30;;;16.80;99.90;;;;;;5030051;28;20168;-83
2022/06/20 00:22:56;;;;;;;6.78;1.73;;;16.80;99.90;;;;;;5014928;28;20223;-81
2022/06/20 00:25:22;;;;;;;5.13;1.30;;;16.50;99.90;;;;;;5014802;28;20269;-81
2022/06/20 00:27:48;;;;;;;4.13;1.73;;;16.40;99.90;;;;;;5014777;28;20200;-81
2022/06/20 00:30:16;;;;;;;7.75;1.50;;;16.40;99.90;;;;;;5013813;28;20195;-80
2022/06/20 00:32:42;;;;;;;9.65;1.58;;;16.30;99.90;;;;;;5015079;28;20179;-83
2022/06/20 00:35:09;;;;;;;6.65;1.85;;;16.20;99.90;;;;;;5030805;28;20164;-80
2022/06/20 00:37:36;;;;;;;3.88;1.65;;;16.20;99.90;;;;;;5014705;28;20223;-80
2022/06/20 00:40:03;;;;;;;10.73;1.63;;;15.90;99.90;;;;;;5013203;28;20172;-80
2022/06/20 00:42:30;;;;;;;8.82;1.60;;;15.90;99.90;;;;;;5029682;28;20207;-83
2022/06/20 00:45:02;;;;;;;7.00;1.70;;;15.90;99.90;;;;;;5013487;28;20172;-79
2022/06/20 00:47:32;;;;;;;7.28;2.00;;;15.90;99.90;;;;;;5030109;28;20653;-83
2022/06/20 00:50:11;;;;;;;4.45;1.50;;;15.80;99.90;;;;;;5029974;28;20671;-80
2022/06/20 00:52:51;;;;;;;4.78;1.73;;;15.70;99.90;;;;;;5014770;28;20169;-81
2022/06/20 00:55:23;;;;;;;6.53;1.70;;;15.60;99.90;;;;;;5014273;28;20238;-80
2022/06/20 00:58:00;;;;;;;11.68;3.00;;;15.60;99.90;;;;;;5014010;28;20180;-80
2022/06/20 01:00:29;;;;;;;13.30;1.75;;;15.70;99.90;;;;;;5029778;28;20173;-79
2022/06/20 01:03:19;;;;;;;9.02;2.03;;;15.90;99.90;;;;;;5029513;28;20197;-80
2022/06/20 01:06:02;;;;;;;7.63;1.90;;;16.10;99.90;;;;;;5014238;28;20259;-80
2022/06/20 01:08:32;;;;;;;9.68;2.20;;;16.20;99.90;;;;;;5029025;28;20302;-80
2022/06/20 01:11:22;;;;;;;7.75;1.83;;;16.20;99.90;;;;;;5029544;28;20160;-82
2022/06/20 01:13:49;;;;;;;5.30;2.00;;;16.20;99.90;;;;;;5014250;28;20168;-80
2022/06/20 01:16:14;;;;;;;6.43;1.98;;;16.00;99.90;;;;;;5015083;28;20172;-80
2022/06/20 01:18:49;;;;;;;11.07;2.63;;;15.90;99.90;;;;;;5018654;28;20517;-80
2022/06/20 01:21:34;;;;;;;12.18;2.17;;;15.90;99.90;;;;;;5019683;28;20175;-80
2022/06/20 01:24:31;;;;;;;8.60;2.03;;;15.80;99.90;;;;;;5017163;28;20176;-83
2022/06/20 01:27:18;;;;;;;9.13;1.95;;;15.80;99.90;;;;;;5033204;28;20687;-81
2022/06/20 01:29:44;;;;;;;20.45;2.35;;;15.50;99.90;;;;;;5017403;28;20266;-80
2022/06/20 01:32:11;;;;;;;7.18;2.38;;;15.50;99.90;;;;;;5020736;28;20160;-82
2022/06/20 01:34:37;;;;;;;7.97;2.30;;;15.50;99.90;;;;;;5034795;28;20187;-81
2022/06/20 01:37:25;;;;;;;7.93;2.47;;;15.60;99.90;;;;;;5035002;28;20183;-83
2022/06/20 01:39:54;;;;;;;8.60;1.98;;;15.50;99.90;;;;;;5034214;28;20261;-81
2022/06/20 01:42:20;;;;;;;8.45;1.88;;;15.60;99.90;;;;;;5035335;28;20173;-80
2022/06/20 01:44:47;;;;;;;12.65;2.63;;;15.50;99.90;;;;;;5034853;28;20157;-82
2022/06/20 01:47:13;;;;;;;11.65;2.30;;;15.60;99.90;;;;;;5034499;28;20165;-81
2022/06/20 01:49:42;;;;;;;9.57;2.67;;;15.50;99.90;;;;;;5023822;28;20247;-83
2022/06/20 01:52:11;;;;;;;22.02;2.08;;;15.50;99.90;;;;;;5045829;28;20180;-81
2022/06/20 01:54:44;;;;;;;17.75;2.83;;;15.40;99.90;;;;;;5037993;28;20165;-81
2022/06/20 01:57:11;;;;;;;8.15;1.75;;;15.40;99.90;;;;;;5035760;28;20181;-81
2022/06/20 01:59:43;;;;;;;10.63;2.15;;;15.40;99.90;;;;;;5019323;28;20218;-80
2022/06/20 02:02:09;;;;;;;17.40;3.03;;;15.30;99.90;;;;;;5014559;28;20156;-80
2022/06/20 02:04:37;;;;;;;8.77;1.98;;;15.30;99.90;;;;;;5029191;28;20276;-81
2022/06/20 02:07:07;;;;;;;14.85;2.38;;;15.10;99.90;;;;;;5029067;28;20193;-79
2022/06/20 02:09:33;;;;;;;15.85;2.03;;;15.00;99.90;;;;;;5013309;28;20226;-80
2022/06/20 02:12:00;;;;;;;7.18;2.00;;;15.10;99.90;;;;;;5028802;28;20537;-82
2022/06/20 02:14:37;;;;;;;9.18;2.13;;;15.00;99.90;;;;;;5014083;28;20621;-81
2022/06/20 02:17:20;;;;;;;7.78;2.20;;;14.60;99.90;;;;;;5013832;28;20184;-83
2022/06/20 02:19:49;;;;;;;6.97;1.75;;;14.50;99.90;;;;;;5013951;28;20171;-79
2022/06/20 02:22:18;;;;;;;16.60;2.90;;;14.50;99.90;;;;;;5013581;28;20185;-79
2022/06/20 02:24:47;;;;;;;12.68;2.13;;;14.60;99.90;;;;;;5012586;28;20535;-79
2022/06/20 02:27:24;;;;;;;7.10;1.90;;;14.70;99.90;;;;;;5013746;28;20238;-79
2022/06/20 02:29:50;;;;;;;7.90;1.80;;;14.70;99.90;;;;;;5013751;28;20211;-80
2022/06/20 02:32:20;;;;;;;8.75;1.80;;;14.80;99.90;;;;;;5013727;28;20259;-79
2022/06/20 02:34:46;;;;;;;12.27;2.55;;;14.80;99.90;;;;;;5028963;28;20187;-83
2022/06/20 02:37:19;;;;;;;9.77;2.22;;;15.10;99.90;;;;;;5013268;28;20184;-80
2022/06/20 02:39:45;;;;;;;8.40;1.75;;;15.20;99.90;;;;;;5013492;28;20651;-84
2022/06/20 02:42:17;;;;;;;6.68;2.20;;;15.20;99.90;;;;;;5028562;28;20230;-80
2022/06/20 02:44:46;;;;;;;11.05;1.88;;;15.10;99.90;;;;;;5013613;28;20169;-81
2022/06/20 02:47:14;;;;;;;11.30;1.88;;;15.00;99.90;;;;;;5028369;28;20287;-79
2022/06/20 02:49:41;;;;;;;8.20;1.38;;;15.00;99.90;;;;;;5028890;28;20208;-79
2022/06/20 02:52:12;;;;;;;15.38;2.80;;;15.10;99.90;;;;;;5013451;28;20173;-79
2022/06/20 02:54:39;;;;;;;8.02;1.50;;;15.10;99.90;;;;;;5013240;28;20161;-81
2022/06/20 02:57:15;;;;;;;4.70;1.50;;;15.10;99.90;;;;;;5012390;28;20308;-82
2022/06/20 02:59:49;;;;;;;10.02;1.50;;;15.00;99.90;;;;;;5027766;28;20629;-81
2022/06/20 03:02:18;;;;;;;8.68;1.85;;;14.90;99.90;;;;;;5012550;28;20287;-81
2022/06/20 03:04:45;;;;;;;9.18;1.25;;;15.00;99.90;;;;;;5011963;28;20191;-80
2022/06/20 03:07:15;;;;;;;12.07;1.60;;;15.10;99.90;;;;;;5012239;28;20196;-82
2022/06/20 03:09:43;;;;;;;3.08;1.10;;;15.30;99.90;;;;;;5027858;28;20212;-83
2022/06/20 03:12:11;;;;;;;9.90;1.25;;;15.40;99.90;;;;;;5012563;28;20169;-82
2022/06/20 03:14:51;;;;;;;7.28;1.70;;;15.50;99.90;;;;;;5027762;28;20172;-79
2022/06/20 03:17:19;;;;;;;11.63;1.95;;;15.40;99.90;;;;;;5012066;28;20196;-81
2022/06/20 03:19:48;;;;;;;5.80;1.27;;;15.30;99.90;;;;;;5014074;28;20219;-82
2022/06/20 03:22:19;;;;;;;4.55;1.13;;;15.20;99.90;;;;;;5016151;28;20168;-79
2022/06/20 03:24:46;;;;;;;12.20;1.25;;;15.10;99.90;;;;;;5016332;28;20200;-80
2022/06/20 03:27:18;;;;;;;7.13;1.60;;;15.10;99.90;;;;;;5031446;28;20254;-81
2022/06/20 03:29:46;;;;;;;7.03;1.27;;;15.20;99.90;;;;;;5015516;28;20208;-80
2022/06/20 03:32:12;;;;;;;8.93;2.33;;;15.30;99.90;;;;;;5030879;28;20315;-83
2022/06/20 03:34:37;;;;;;;12.13;1.75;;;15.30;99.90;;;;;;5014721;28;20259;-81
2022/06/20 03:37:06;;;;;;;4.22;1.40;;;15.30;99.90;;;;;;5031311;28;20189;-82
2022/06/20 03:39:34;;;;;;;10.93;2.28;;;15.40;99.90;;;;;;5031070;28;20180;-80
2022/06/20 03:42:01;;;;;;;6.78;1.02;;;15.50;99.90;;;;;;5015821;28;20176;-83
2022/06/20 03:44:32;;;;;;;7.28;1.00;;;15.40;99.90;;;;;;5015951;28;20169;-79
2022/06/20 03:47:39;;;;;;;7.90;1.48;;;15.40;99.90;;;;;;5016037;28;20185;-80
2022/06/20 03:50:11;;;;;;;10.68;1.95;;;15.20;99.90;;;;;;5012722;28;20257;-83
2022/06/20 03:52:47;;;;;;;6.88;1.40;;;15.30;99.90;;;;;;5014824;28;20206;-81
2022/06/20 03:55:24;;;;;;;2.22;0.98;;;15.50;99.90;;;;;;5031280;28;20182;-81
2022/06/20 03:58:11;;;;;;;3.42;1.40;;;15.40;99.90;;;;;;5014389;28;20196;-80
2022/06/20 04:00:58;;;;;;;8.60;1.55;;;15.30;99.90;;;;;;5014620;28;20649;-80
2022/06/20 04:03:54;;;;;;;6.40;1.40;;;15.40;99.90;;;;;;5030775;28;20267;-80
2022/06/20 04:06:34;;;;;;;5.38;1.45;;;15.30;99.90;;;;;;5014746;28;20295;-83
2022/06/20 04:12:23;;;;;;;5.18;1.40;;;15.20;99.90;;;;;;5015184;28;20644;-80
2022/06/20 04:15:02;;;;;;;4.88;1.13;;;15.20;99.90;;;;;;5015283;28;20638;-82
2022/06/20 04:20:34;;;;;;;3.30;1.10;;;15.10;99.90;;;;;;5015490;28;20243;-83
2022/06/20 04:23:03;;;;;;;5.05;1.70;;;15.20;99.90;;;;;;5016403;28;20207;-79
2022/06/20 04:25:37;;;;;;;7.60;1.70;;;15.40;99.90;;;;;;5018669;28;20167;-81
2022/06/20 04:28:14;;;;;;;7.85;1.00;;;15.40;99.90;;;;;;5038667;28;20192;-80
2022/06/20 04:30:53;;;;;;;4.63;1.25;;;15.40;99.90;;;;;;5023955;28;20219;-82
2022/06/20 04:33:39;;;;;;;9.32;1.65;;;15.20;99.90;;;;;;5030648;28;20172;-80
2022/06/20 04:36:11;;;;;;;10.82;2.17;;;15.40;99.90;;;;;;5015046;28;20630;-82
2022/06/20 04:38:55;;;;;;;10.50;1.65;;;15.50;99.90;;;;;;5013733;28;20246;-79
2022/06/20 04:41:30;;;;;;;5.82;1.65;;;15.60;99.90;;;;;;5014805;28;20659;-82
2022/06/20 04:44:01;;;;;;;7.80;1.88;;;15.60;99.90;;;;;;5014583;28;20637;-80
2022/06/20 04:46:30;;;;;;;7.63;2.00;;;15.70;99.90;;;;;;5015020;28;20180;-79
2022/06/20 04:48:56;;;;;;;5.93;1.50;;;15.40;99.90;;;;;;5014354;28;20667;-82
2022/06/20 04:51:32;;;;;;;12.25;1.70;;;15.30;99.90;;;;;;5014440;28;20168;-81
2022/06/20 04:53:59;;;;;;;6.10;1.58;;;15.30;99.90;;;;;;5014496;28;20202;-81
2022/06/20 04:56:28;;;;;;;11.63;1.77;;;15.40;99.90;;;;;;5029921;28;20736;-83
2022/06/20 04:59:16;;;;;;;6.93;1.80;;;15.40;99.90;;;;;;5014240;28;20192;-83
2022/06/20 05:01:42;;;;;;;10.57;1.65;;;15.40;99.90;;;;;;5029228;28;20180;-83
2022/06/20 05:04:27;;;;;;;8.95;1.70;;;15.40;99.90;;;;;;5014092;28;20176;-84
2022/06/20 05:06:56;;;;;;;15.63;2.38;;;15.50;99.90;;;;;;5013451;28;20178;-79
2022/06/20 05:09:35;;;;;;;6.93;2.00;;;15.60;99.90;;;;;;5014202;28;20196;-81
2022/06/20 05:12:16;;;;;;;10.73;1.70;;;15.70;99.90;;;;;;5013783;28;20161;-81
2022/06/20 05:15:06;;;;;;;10.20;2.25;;;15.70;99.90;;;;;;5029150;28;20659;-81
2022/06/20 05:17:33;;;;;;;8.43;1.90;;;15.70;99.90;;;;;;5025560;28;20259;-79
2022/06/20 05:20:06;;;;;;;7.40;2.20;;;15.80;99.90;;;;;;5035544;28;20168;-84
2022/06/20 05:22:39;;;;;;;9.88;2.10;;;15.70;99.90;;;;;;5021903;28;20302;-82
2022/06/20 05:25:11;;;;;;;6.30;2.33;;;15.70;99.90;;;;;;5016182;28;20259;-80
2022/06/20 05:27:50;;;;;;;9.65;2.30;;;15.50;99.90;;;;;;5034423;28;20231;-81
2022/06/20 05:30:19;;;;;;;15.82;2.75;;;15.60;99.90;;;;;;5019494;28;20186;-80
2022/06/20 05:33:01;;;;;;;15.00;2.00;;;15.70;99.90;;;;;;5018862;28;20168;-79
2022/06/20 05:35:37;;;;;;;6.47;1.80;;;15.90;99.90;;;;;;5016652;28;20207;-82
2022/06/20 05:38:13;;;;;;;10.30;2.70;;;15.90;99.90;;;;;;5034673;28;20556;-80
2022/06/20 05:40:53;;;;;;;21.10;3.85;;;16.20;99.90;;;;;;5022278;28;20196;-81
2022/06/20 05:43:23;;;;;;;28.33;3.67;;;16.00;99.90;;;;;;5037958;28;20160;-80
2022/06/20 05:45:56;;;;;;;11.45;2.10;;;15.90;99.90;;;;;;5020116;28;20173;-80
2022/06/20 05:48:29;;;;;;;17.10;2.70;;;15.90;99.90;;;;;;5035373;28;20306;-81
2022/06/20 05:51:00;;;;;;;66.13;6.75;;;16.00;99.90;;;;;;5019609;28;20168;-81
2022/06/20 05:53:56;;;;;;;5.55;1.90;;;15.90;99.90;;;;;;5015083;28;20234;-82
2022/06/20 05:56:41;;;;;;;37.55;4.05;;;15.90;99.90;;;;;;5018652;28;20560;-80
2022/06/20 05:59:21;;;;;;;9.30;2.20;;;16.00;99.90;;;;;;5034520;28;20625;-82
2022/06/20 06:01:46;;;;;;;31.35;3.75;;;16.00;99.90;;;;;;5014759;28;20326;-83
2022/06/20 06:04:32;;;;;;;15.68;2.03;;;16.00;99.90;;;;;;5032362;28;20306;-80
2022/06/20 06:07:06;;;;;;;30.90;2.67;;;16.10;99.90;;;;;;5016508;28;20188;-84
2022/06/20 06:09:52;;;;;;;25.38;2.55;;;16.30;99.90;;;;;;5034635;28;20207;-80
2022/06/20 06:12:42;;;;;;;37.50;4.68;;;16.10;99.90;;;;;;5016324;28;20176;-80
2022/06/20 06:15:33;;;;;;;9.43;2.88;;;16.00;99.90;;;;;;5016598;28;20191;-80
2022/06/20 06:18:07;;;;;;;91.30;9.48;;;16.00;99.90;;;;;;5015306;28;20192;-80
2022/06/20 06:20:33;;;;;;;52.58;5.60;;;16.00;99.90;;;;;;5015484;28;20170;-79
2022/06/20 06:23:05;;;;;;;14.25;2.50;;;15.90;99.90;;;;;;5015917;28;20179;-81
2022/06/20 06:25:37;;;;;;;12.90;1.90;;;16.00;99.90;;;;;;5015026;28;20168;-79
2022/06/20 06:28:12;;;;;;;10.10;1.83;;;15.80;99.90;;;;;;5032189;28;20299;-79
2022/06/20 06:30:50;;;;;;;9.73;2.22;;;15.70;99.90;;;;;;5017995;28;20171;-80
2022/06/20 06:33:43;;;;;;;6.30;2.00;;;15.50;99.90;;;;;;5031111;28;20176;-80
2022/06/20 06:36:23;;;;;;;10.90;1.63;;;15.60;99.90;;;;;;5017083;28;20636;-80
2022/06/20 06:39:14;;;;;;;7.70;1.50;;;15.70;99.90;;;;;;5016415;28;20204;-79
2022/06/20 06:41:46;;;;;;;10.70;1.65;;;15.70;99.90;;;;;;5027777;28;20173;-80
2022/06/20 06:44:41;;;;;;;15.25;2.30;;;15.70;99.90;;;;;;5013252;28;20280;-86
2022/06/20 06:47:19;;;;;;;3.45;1.17;;;15.70;99.90;;;;;;5013600;28;20726;-81
2022/06/20 06:49:47;;;;;;;5.63;1.35;;;15.80;99.90;;;;;;5013017;28;20204;-82
2022/06/20 06:52:25;;;;;;;84.18;6.97;;;15.90;99.90;;;;;;5013158;28;20258;-83
2022/06/20 06:55:17;;;;;;;10.88;1.73;;;16.10;99.90;;;;;;5030493;28;20528;-85
2022/06/20 06:57:48;;;;;;;26.77;3.63;;;16.30;99.90;;;;;;5029486;28;20711;-81
2022/06/20 07:00:18;;;;;;;19.25;2.90;;;16.30;99.90;;;;;;5020015;28;20176;-83
2022/06/20 07:03:22;;;;;;;4.65;1.30;;;16.40;99.90;;;;;;5042976;28;20625;-82
2022/06/20 07:06:06;;;;;;;15.13;2.03;;;16.50;99.90;;;;;;5040852;28;20148;-82
2022/06/20 07:08:38;;;;;;;20.90;3.25;;;16.50;99.90;;;;;;5020177;28;20199;-84
2022/06/20 07:11:24;;;;;;;16.70;2.50;;;16.80;99.90;;;;;;5033158;28;20415;-85
2022/06/20 07:14:20;;;;;;;16.48;2.42;;;17.10;99.90;;;;;;5033076;28;20180;-83
2022/06/20 07:17:18;;;;;;;25.35;3.42;;;17.20;99.90;;;;;;5046645;28;20648;-87
2022/06/20 07:19:59;;;;;;;19.98;2.10;;;17.20;99.90;;;;;;5053418;28;20207;-87
2022/06/20 07:22:31;;;;;;;2.90;1.20;;;17.50;99.90;;;;;;5052293;28;20178;-85
2022/06/20 07:24:56;;;;;;;31.63;4.10;;;17.60;99.90;;;;;;5029849;28;20176;-87
2022/06/20 07:27:32;;;;;;;13.48;1.90;;;17.90;99.90;;;;;;5017399;28;20195;-85
2022/06/20 07:30:21;;;;;;;219.90;20.50;;;18.00;99.90;;;;;;5017130;28;20289;-86
2022/06/20 07:32:54;;;;;;;56.83;4.57;;;18.10;99.90;;;;;;5017429;28;20164;-81
2022/06/20 07:35:25;;;;;;;88.13;9.63;;;18.20;99.90;;;;;;5035593;28;20171;-92
2022/06/20 07:38:09;;;;;;;6.03;1.50;;;18.30;99.90;;;;;;5039667;28;20184;-91
2022/06/20 07:40:45;;;;;;;54.55;6.43;;;18.60;99.90;;;;;;5038479;28;20168;-94
2022/06/20 07:43:24;;;;;;;101.32;8.43;;;18.50;99.90;;;;;;5037021;28;20183;-94
2022/06/20 07:45:53;;;;;;;109.63;12.50;;;18.60;99.90;;;;;;5038340;28;20536;-92
2022/06/20 07:48:29;;;;;;;74.97;6.63;;;18.40;99.90;;;;;;5036320;28;20222;-81
2022/06/20 07:51:01;;;;;;;31.55;2.75;;;18.10;99.90;;;;;;5036246;28;20168;-82
2022/06/20 07:53:38;;;;;;;35.72;3.97;;;17.90;99.90;;;;;;5035408;28;20251;-81
2022/06/20 07:56:10;;;;;;;12.20;2.15;;;17.90;99.90;;;;;;5036266;28;20175;-81
2022/06/20 07:58:41;;;;;;;15.82;1.42;;;18.00;99.90;;;;;;5039208;28;20192;-83
2022/06/20 08:01:42;;;;;;;3.75;1.00;;;17.90;99.90;;;;;;5046329;28;20149;-83
2022/06/20 08:04:10;;;;;;;3.03;1.10;;;18.10;99.90;;;;;;5043596;28;20213;-82
2022/06/20 08:07:14;;;;;;;10.35;1.95;;;18.40;99.90;;;;;;5039920;28;20148;-84
2022/06/20 08:13:20;;;;;;;11.30;1.20;;;18.50;99.90;;;;;;5034211;28;20579;-81
2022/06/20 08:15:53;;;;;;;8.02;1.95;;;18.80;99.90;;;;;;5034164;28;20695;-81
2022/06/20 08:18:20;;;;;;;9.25;1.50;;;18.90;99.90;;;;;;5034005;28;20199;-80
2022/06/20 08:20:55;;;;;;;4.45;1.20;;;19.10;99.90;;;;;;5033539;28;20175;-79
2022/06/20 08:23:49;;;;;;;7.43;1.25;;;19.10;99.90;;;;;;5035452;28;20163;-82
2022/06/20 08:26:32;;;;;;;4.05;1.27;;;19.00;99.90;;;;;;5037877;28;20211;-82
2022/06/20 08:29:06;;;;;;;4.38;1.55;;;19.40;99.90;;;;;;5033787;28;20222;-82
2022/06/20 08:31:46;;;;;;;6.25;1.95;;;19.70;99.90;;;;;;5033950;28;20167;-83
2022/06/20 08:34:22;;;;;;;2.33;1.17;;;19.80;99.90;;;;;;5036637;28;20530;-83
2022/06/20 08:36:58;;;;;;;45.60;3.83;;;19.80;99.90;;;;;;5035364;28;20289;-83
2022/06/20 08:40:00;;;;;;;7.32;1.17;;;20.10;99.90;;;;;;5035644;28;20175;-85
2022/06/20 08:42:53;;;;;;;6.65;2.08;;;20.50;99.90;;;;;;5032249;28;20187;-81
2022/06/20 08:45:30;;;;;;;66.90;7.10;;;20.30;99.90;;;;;;5035688;28;20175;-80
2022/06/20 08:48:14;;;;;;;3.50;1.13;;;20.20;99.90;;;;;;5047121;28;20574;-83
2022/06/20 08:51:04;;;;;;;4.78;1.70;;;20.10;99.90;;;;;;5037423;28;20174;-83
2022/06/20 08:53:48;;;;;;;33.17;3.08;;;19.60;99.90;;;;;;5033838;28;20167;-81
2022/06/20 08:56:26;;;;;;;5.38;1.80;;;19.00;99.90;;;;;;5034912;28;20164;-81
2022/06/20 08:59:20;;;;;;;22.73;3.33;;;18.40;99.90;;;;;;5033083;28;20240;-82
2022/06/20 09:01:48;;;;;;;30.23;3.13;;;18.80;99.90;;;;;;5032875;28;20630;-82
2022/06/20 09:04:31;;;;;;;30.52;3.38;;;18.90;99.90;;;;;;5032954;28;20267;-81
2022/06/20 09:07:34;;;;;;;6.18;1.30;;;18.60;99.90;;;;;;5034781;28;20167;-80
2022/06/20 09:10:18;;;;;;;6.97;1.38;;;18.60;99.90;;;;;;5036910;28;20203;-81
2022/06/20 09:13:05;;;;;;;28.40;3.08;;;18.90;99.90;;;;;;5035698;28;20270;-81
2022/06/20 09:15:55;;;;;;;2.00;0.90;;;19.10;99.90;;;;;;5034015;28;20200;-81
2022/06/20 09:19:12;;;;;;;3.22;1.10;;;19.40;99.90;;;;;;5031897;28;20188;-80
2022/06/20 09:21:49;;;;;;;5.28;1.40;;;19.60;99.90;;;;;;5031224;28;20278;-80
2022/06/20 09:24:52;;;;;;;10.95;1.67;;;19.70;99.90;;;;;;5033651;28;20290;-82
2022/06/20 09:27:56;;;;;;;100.47;7.40;;;19.80;99.90;;;;;;5034867;28;20195;-84
2022/06/20 09:30:48;;;;;;;5.32;1.83;;;20.00;99.90;;;;;;5036428;28;20199;-85
2022/06/20 09:33:35;;;;;;;9.70;1.50;;;19.90;99.90;;;;;;5034703;28;20636;-85
2022/06/20 09:36:27;;;;;;;3.13;1.40;;;20.40;99.90;;;;;;5042033;28;20179;-83
2022/06/20 09:39:18;;;;;;;5.50;1.52;;;20.80;99.90;;;;;;5057134;28;20210;-84
2022/06/20 09:42:05;;;;;;;137.40;11.85;;;21.10;99.90;;;;;;5050952;28;20181;-83
2022/06/20 09:45:06;;;;;;;5.50;1.58;;;21.00;99.90;;;;;;5034976;28;20587;-83
2022/06/20 09:47:57;;;;;;;30.85;4.60;;;21.10;99.90;;;;;;5032240;28;20203;-84
2022/06/20 09:50:52;;;;;;;1.85;1.50;;;21.00;99.90;;;;;;5034720;28;20289;-84
2022/06/20 09:53:32;;;;;;;8.27;1.90;;;20.80;99.90;;;;;;5033574;28;20225;-85
2022/06/20 09:56:19;;;;;;;1.60;1.50;;;21.10;99.90;;;;;;5032606;28;20283;-85
2022/06/20 09:58:47;;;;;;;5.22;1.88;;;20.80;99.90;;;;;;5033586;28;20211;-85
2022/06/20 10:01:35;;;;;;;6.40;2.00;;;20.70;99.90;;;;;;5033181;28;20182;-84
2022/06/20 10:04:11;;;;;;;3.33;1.83;;;21.10;99.90;;;;;;5033196;28;20167;-85
2022/06/20 10:07:16;;;;;;;1.95;1.73;;;21.30;99.90;;;;;;5033808;28;20250;-85
2022/06/20 10:09:51;;;;;;;2.17;1.70;;;21.50;99.90;;;;;;5033358;28;20269;-84
2022/06/20 10:12:28;;;;;;;5.68;1.70;;;21.40;99.90;;;;;;5031815;28;20163;-85
2022/06/20 10:15:30;;;;;;;5.85;2.83;;;21.60;99.90;;;;;;5032738;28;20229;-85
2022/06/20 10:18:23;;;;;;;4.38;2.10;;;22.10;99.90;;;;;;5033547;28;20197;-84
2022/06/20 10:21:36;;;;;;;8.65;1.75;;;22.30;99.90;;;;;;5032701;28;20592;-87
2022/06/20 10:24:29;;;;;;;3.38;1.70;;;22.80;99.90;;;;;;5028281;28;20627;-85
2022/06/20 10:27:29;;;;;;;10.88;2.30;;;22.80;99.90;;;;;;5032588;28;20194;-85
2022/06/20 10:30:13;;;;;;;3.85;2.75;;;22.20;99.90;;;;;;5032011;28;20209;-81
2022/06/20 10:33:12;;;;;;;4.55;2.05;;;22.20;99.90;;;;;;5033905;28;20164;-81
2022/06/20 10:35:54;;;;;;;7.85;2.08;;;21.90;99.90;;;;;;5033216;28;20651;-80
2022/06/20 10:38:58;;;;;;;3.22;1.90;;;20.80;99.90;;;;;;5033637;28;20199;-85
2022/06/20 10:41:49;;;;;;;3.03;2.33;;;21.10;99.90;;;;;;5031843;28;20258;-78
2022/06/20 10:44:22;;;;;;;4.63;2.35;;;21.60;99.90;;;;;;5032503;28;20176;-77
2022/06/20 10:47:07;;;;;;;5.47;2.20;;;21.80;99.90;;;;;;5032603;28;20190;-78
2022/06/20 10:49:51;;;;;;;4.72;2.35;;;22.00;99.90;;;;;;5032130;28;20273;-78
2022/06/20 10:52:39;;;;;;;14.55;2.90;;;22.30;99.90;;;;;;5032679;28;20523;-78
2022/06/20 10:55:20;;;;;;;15.82;3.03;;;22.50;99.90;;;;;;5032861;28;20168;-83
2022/06/20 10:57:51;;;;;;;38.95;4.68;;;22.50;99.90;;;;;;5032013;28;20199;-78
2022/06/20 11:00:20;;;;;;;130.32;12.82;;;22.30;99.90;;;;;;5032609;28;20498;-82
2022/06/20 11:03:13;;;;;;;9.10;3.05;;;22.30;99.90;;;;;;5032459;28;20251;-78
2022/06/20 11:05:57;;;;;;;85.97;7.38;;;22.10;99.90;;;;;;5032725;28;20179;-83
2022/06/20 11:08:44;;;;;;;12.07;2.67;;;21.70;99.90;;;;;;5032216;28;20736;-78
2022/06/20 11:11:31;;;;;;;80.28;9.88;;;22.30;99.90;;;;;;5032776;28;20167;-85
2022/06/20 11:14:25;;;;;;;33.63;4.78;;;22.10;99.90;;;;;;5033614;28;20175;-81
2022/06/20 11:17:15;;;;;;;32.40;4.47;;;21.90;99.90;;;;;;5031084;28;20176;-84
2022/06/20 11:19:52;;;;;;;98.22;10.55;;;20.90;99.90;;;;;;5031947;28;20175;-77
2022/06/20 11:22:38;;;;;;;37.60;5.28;;;20.60;99.90;;;;;;5031568;28;20176;-77
2022/06/20 11:25:17;;;;;;;7.90;2.55;;;20.30;99.90;;;;;;5032127;28;20171;-83
2022/06/20 11:27:58;;;;;;;4.10;2.70;;;20.60;99.90;;;;;;5031933;28;20695;-80
2022/06/20 11:30:35;;;;;;;8.27;2.72;;;21.10;99.90;;;;;;5032715;28;20180;-84
2022/06/20 11:33:04;;;;;;;14.35;3.67;;;22.00;99.90;;;;;;5023279;28;20176;-83
2022/06/20 11:35:48;;;;;;;13.25;2.58;;;22.50;99.90;;;;;;5013402;28;20172;-85
2022/06/20 11:38:44;;;;;;;10.57;3.03;;;22.50;99.90;;;;;;5012461;28;20192;-80
2022/06/20 11:41:23;;;;;;;17.23;3.75;;;22.30;99.90;;;;;;5016868;28;20164;-79
2022/06/20 11:44:06;;;;;;;8.98;3.08;;;22.10;99.90;;;;;;5034868;28;20171;-86
2022/06/20 11:46:48;;;;;;;5.20;2.78;;;21.80;99.90;;;;;;5033230;28;20600;-82
2022/06/20 11:49:17;;;;;;;18.83;4.07;;;21.80;99.90;;;;;;5035355;28;20298;-80
2022/06/20 11:52:24;;;;;;;75.63;7.13;;;22.10;99.90;;;;;;5030899;28;20179;-80
2022/06/20 11:54:58;;;;;;;14.55;2.88;;;22.60;99.90;;;;;;5038688;28;20667;-81
2022/06/20 11:57:57;;;;;;;11.32;2.50;;;22.50;99.90;;;;;;5034477;28;20195;-80
2022/06/20 12:00:32;;;;;;;8.50;3.03;;;21.80;99.90;;;;;;5013489;28;20172;-82
2022/06/20 12:03:23;;;;;;;35.80;6.55;;;21.80;99.90;;;;;;5023918;28;20274;-82
2022/06/20 12:06:11;;;;;;;52.75;6.47;;;21.30;99.90;;;;;;5034573;28;20182;-81
2022/06/20 12:08:57;;;;;;;40.55;4.35;;;21.50;99.90;;;;;;5038990;28;20188;-80
2022/06/20 12:11:49;;;;;;;3.15;1.80;;;21.70;99.90;;;;;;5040197;28;20644;-80
2022/06/20 12:14:46;;;;;;;45.47;4.47;;;22.20;99.90;;;;;;5057394;28;20231;-82
2022/06/20 12:17:35;;;;;;;11.45;2.08;;;22.20;99.90;;;;;;5048533;28;20228;-81
2022/06/20 12:23:33;;;;;;;7.25;2.10;;;21.80;99.90;;;;;;5029617;28;20191;-80
2022/06/20 12:26:10;;;;;;;4.80;2.13;;;21.80;99.90;;;;;;5030034;28;20182;-81
2022/06/20 12:28:48;;;;;;;34.80;4.03;;;21.70;99.90;;;;;;5014583;28;20207;-81
2022/06/20 12:31:17;;;;;;;6.18;2.13;;;22.00;99.90;;;;;;5014477;28;20731;-80
2022/06/20 12:33:48;;;;;;;27.70;3.78;;;22.40;99.90;;;;;;5028981;28;20204;-83
2022/06/20 12:36:34;;;;;;;16.33;3.10;;;22.30;99.90;;;;;;5035822;28;20243;-84
2022/06/20 12:39:19;;;;;;;13.35;2.28;;;22.40;99.90;;;;;;5033751;28;20198;-84
2022/06/20 12:41:52;;;;;;;15.00;2.80;;;22.30;99.90;;;;;;5034349;28;20175;-83
2022/06/20 12:44:36;;;;;;;7.97;2.47;;;22.10;99.90;;;;;;5013351;28;20220;-84
2022/06/20 12:47:36;;;;;;;6.75;2.30;;;22.30;99.90;;;;;;5013250;28;20649;-83
2022/06/20 12:50:04;;;;;;;17.88;2.80;;;22.60;99.90;;;;;;5020184;28;20203;-83
2022/06/20 12:52:55;;;;;;;7.32;3.28;;;23.10;99.90;;;;;;5031422;28;20184;-83
2022/06/20 12:55:35;;;;;;;5.55;2.65;;;23.40;99.90;;;;;;5033165;28;20168;-84
2022/06/20 12:58:34;;;;;;;7.75;2.38;;;23.70;99.90;;;;;;5033462;28;20192;-83
2022/06/20 13:01:10;;;;;;;19.13;2.22;;;23.90;99.90;;;;;;5032667;28;20172;-84
2022/06/20 13:04:20;;;;;;;11.15;2.35;;;23.60;99.90;;;;;;5032602;28;20568;-83
2022/06/20 13:07:07;;;;;;;7.47;2.20;;;23.20;99.90;;;;;;5032172;28;20195;-83
2022/06/20 13:09:57;;;;;;;13.60;2.63;;;23.30;99.90;;;;;;5033061;28;20218;-83
2022/06/20 13:12:52;;;;;;;13.30;2.15;;;23.60;99.90;;;;;;5014507;28;20202;-83
2022/06/20 13:15:38;;;;;;;4.93;1.90;;;23.30;99.90;;;;;;5012682;28;20246;-83
2022/06/20 13:18:19;;;;;;;11.68;2.60;;;23.40;99.90;;;;;;5012064;28;20196;-83
2022/06/20 13:21:18;;;;;;;6.20;1.92;;;23.40;99.90;;;;;;5012706;28;20513;-83
2022/06/20 13:24:01;;;;;;;4.78;1.98;;;22.30;99.90;;;;;;5014013;28;20255;-83
2022/06/20 13:26:53;;;;;;;6.05;1.90;;;22.30;99.90;;;;;;5022990;28;20211;-85
2022/06/20 13:29:24;;;;;;;6.75;1.58;;;22.40;99.90;;;;;;5025905;28;20223;-81
2022/06/20 13:31:57;;;;;;;2.88;1.88;;;22.90;99.90;;;;;;5014178;28;20172;-84
2022/06/20 13:34:34;;;;;;;5.82;2.40;;;23.20;99.90;;;;;;5015564;28;20719;-83
2022/06/20 13:37:14;;;;;;;4.95;1.90;;;23.10;99.90;;;;;;5014655;28;20196;-82
2022/06/20 13:39:53;;;;;;;5.60;1.90;;;23.20;99.90;;;;;;5022310;28;20355;-84
2022/06/20 13:42:36;;;;;;;4.90;1.70;;;23.60;99.90;;;;;;5038250;28;20175;-85
2022/06/20 13:45:21;;;;;;;4.65;1.60;;;23.20;99.90;;;;;;5012995;28;20180;-85
2022/06/20 13:47:47;;;;;;;6.40;1.67;;;23.10;99.90;;;;;;5033392;28;20196;-85
2022/06/20 13:50:23;;;;;;;3.33;1.60;;;23.20;99.90;;;;;;5015313;28;20310;-84
2022/06/20 13:53:16;;;;;;;8.45;1.63;;;23.40;99.90;;;;;;5031690;28;20152;-85
2022/06/20 13:55:55;;;;;;;8.32;1.55;;;23.40;99.90;;;;;;5019935;28;20184;-85